createdAt,value
2022-10-23T00:02:02.400Z,100570.16
2022-10-23T00:06:05.163Z,100556.31
2022-10-23T00:10:07.127Z,100554.53
2022-10-23T00:14:08.736Z,100550.09
2022-10-23T00:18:10.239Z,100560.34
2022-10-23T00:22:11.810Z,100553.47
2022-10-23T00:26:16.861Z,100544.78
2022-10-23T00:30:18.578Z,100543.06
2022-10-23T00:34:20.243Z,100540.59
2022-10-23T00:38:22.319Z,100536.88
2022-10-23T00:42:24.179Z,100548.66
2022-10-23T00:46:26.223Z,100542.47
2022-10-23T00:50:30.592Z,100546.75
2022-10-23T00:54:36.265Z,100540.09
2022-10-23T00:58:37.894Z,100527.22
2022-10-23T01:02:39.633Z,100517.06
2022-10-23T01:07:04.636Z,100521.41
2022-10-23T01:11:17.066Z,100521.34
2022-10-23T01:15:53.151Z,100520.53
2022-10-23T01:20:31.856Z,100512.72
2022-10-23T01:24:59.531Z,100505.69
2022-10-23T01:29:10.126Z,100515.00
2022-10-23T01:33:17.811Z,100516.66
2022-10-23T01:37:38.558Z,100515.66
2022-10-23T01:41:59.716Z,100506.81
2022-10-23T01:46:10.409Z,100507.38
2022-10-23T01:50:16.213Z,100505.41
2022-10-23T01:54:26.235Z,100494.19
2022-10-23T01:58:29.673Z,100484.84
2022-10-23T02:02:33.634Z,100489.19
2022-10-23T02:06:36.243Z,100493.53
2022-10-23T02:10:46.835Z,100490.16
2022-10-23T02:15:02.635Z,100473.88
2022-10-23T02:19:28.828Z,100485.91
2022-10-23T02:23:55.322Z,100484.13
2022-10-23T02:28:01.774Z,100475.53
2022-10-23T02:32:13.045Z,100477.31
2022-10-23T02:36:19.453Z,100477.31
2022-10-23T02:40:23.208Z,100467.00
2022-10-23T02:44:43.095Z,100458.31
2022-10-23T02:48:53.003Z,100453.81
2022-10-23T02:53:16.382Z,100449.59
2022-10-23T02:57:27.371Z,100449.53
2022-10-23T03:01:41.027Z,100445.31
2022-10-23T03:05:44.913Z,100439.25
2022-10-23T03:09:48.626Z,100440.09
2022-10-23T03:13:50.140Z,100429.69
2022-10-23T03:17:51.726Z,100432.09
2022-10-23T03:21:53.265Z,100436.16
2022-10-23T03:25:56.421Z,100441.28
2022-10-23T03:30:17.772Z,100447.28
2022-10-23T03:34:24.069Z,100439.59
2022-10-23T03:38:27.861Z,100437.91
2022-10-23T03:42:31.987Z,100437.81
2022-10-23T03:46:33.537Z,100453.13
2022-10-23T03:50:35.601Z,100447.66
2022-10-23T03:54:37.160Z,100433.13
2022-10-23T03:58:38.642Z,100444.31
2022-10-23T04:02:40.398Z,100445.00
2022-10-23T04:06:42.212Z,100449.84
2022-10-23T04:10:43.917Z,100434.22
2022-10-23T04:14:45.545Z,100433.91
2022-10-23T04:18:47.672Z,100430.41
2022-10-23T04:22:49.760Z,100440.44
2022-10-23T04:26:51.369Z,100433.44
2022-10-23T04:30:53.205Z,100425.09
2022-10-23T04:34:54.796Z,100410.75
2022-10-23T04:38:56.502Z,100414.34
2022-10-23T04:42:58.147Z,100411.88
2022-10-23T04:47:00.990Z,100407.59
2022-10-23T04:51:05.348Z,100413.50
2022-10-23T04:55:25.420Z,100424.41
2022-10-23T04:59:41.613Z,100455.06
2022-10-23T05:03:44.077Z,100434.69
2022-10-23T05:07:46.043Z,100438.50
2022-10-23T05:12:11.333Z,100425.78
2022-10-23T05:16:27.189Z,100420.50
2022-10-23T05:20:33.404Z,100418.91
2022-10-23T05:24:35.884Z,100424.16
2022-10-23T05:28:41.164Z,100410.38
2022-10-23T05:32:46.337Z,100409.66
2022-10-23T05:36:49.376Z,100404.75
2022-10-23T05:40:52.356Z,100401.50
2022-10-23T05:44:55.226Z,100404.22
2022-10-23T05:49:16.194Z,100379.31
2022-10-23T05:53:29.627Z,100375.66
2022-10-23T05:57:49.081Z,100374.53
2022-10-23T06:01:55.739Z,100370.81
2022-10-23T06:06:09.261Z,100362.84
2022-10-23T06:10:20.656Z,100375.59
2022-10-23T06:14:25.072Z,100379.66
2022-10-23T06:18:27.486Z,100386.28
2022-10-23T06:22:34.294Z,100372.56
2022-10-23T06:26:49.302Z,100367.59
2022-10-23T06:30:55.621Z,100364.25
2022-10-23T06:34:57.206Z,100370.97
2022-10-23T06:43:29.028Z,100372.16
2022-10-23T06:47:52.547Z,100362.97
2022-10-23T06:52:18.460Z,100362.03
2022-10-23T06:56:30.378Z,100365.53
2022-10-23T07:00:32.591Z,100367.41
2022-10-23T07:04:34.856Z,100363.09
2022-10-23T07:08:40.125Z,100374.38
2022-10-23T07:13:04.669Z,100374.44
2022-10-23T07:17:14.903Z,100379.59
2022-10-23T07:21:16.757Z,100383.09
2022-10-23T07:25:19.313Z,100386.09
2022-10-23T07:29:20.826Z,100400.53
2022-10-23T07:33:24.022Z,100395.59
2022-10-23T07:37:33.395Z,100381.06
2022-10-23T07:41:37.647Z,100376.97
2022-10-23T07:45:39.297Z,100386.56
2022-10-23T07:49:49.811Z,100372.97
2022-10-23T07:53:52.121Z,100370.56
2022-10-23T07:58:27.479Z,100367.38
2022-10-23T08:02:47.452Z,100394.41
2022-10-23T08:06:49.045Z,100376.13
2022-10-23T08:10:52.362Z,100355.97
2022-10-23T08:15:00.779Z,100345.22
2022-10-23T08:19:11.815Z,100335.16
2022-10-23T08:23:18.387Z,100332.91
2022-10-23T08:27:20.197Z,100327.84
2022-10-23T08:31:24.122Z,100336.47
2022-10-23T08:35:46.692Z,100342.63
2022-10-23T08:39:53.332Z,100335.19
2022-10-23T08:44:30.584Z,100320.78
2022-10-23T08:48:42.629Z,100313.94
2022-10-23T08:53:14.168Z,100294.25
2022-10-23T08:57:17.653Z,100304.66
2022-10-23T09:01:34.386Z,100290.16
2022-10-23T09:06:00.964Z,100280.03
2022-10-23T09:10:14.687Z,100291.38
2022-10-23T09:14:34.933Z,100293.41
2022-10-23T09:18:36.930Z,100294.53
2022-10-23T09:22:39.078Z,100299.03
2022-10-23T09:26:42.637Z,100302.63
2022-10-23T09:30:44.201Z,100291.66
2022-10-23T09:34:54.575Z,100280.66
2022-10-23T09:38:58.893Z,100276.50
2022-10-23T09:43:14.184Z,100274.94
2022-10-23T09:47:20.678Z,100271.59
2022-10-23T09:51:22.322Z,100256.16
2022-10-23T09:55:25.879Z,100264.78
2022-10-23T09:59:32.341Z,100266.44
2022-10-23T10:03:33.958Z,100251.75
2022-10-23T10:07:41.560Z,100243.09
2022-10-23T10:11:47.904Z,100236.22
2022-10-23T10:15:58.177Z,100225.88
2022-10-23T10:20:19.526Z,100243.19
2022-10-23T10:24:34.621Z,100239.78
2022-10-23T10:29:24.036Z,100239.81
2022-10-23T10:33:54.904Z,100244.13
2022-10-23T10:38:14.639Z,100238.06
2022-10-23T10:42:28.299Z,100212.16
2022-10-23T10:46:45.057Z,100213.09
2022-10-23T10:50:55.584Z,100204.47
2022-10-23T10:55:29.813Z,100193.22
2022-10-23T10:59:37.756Z,100205.31
2022-10-23T11:03:55.050Z,100211.34
2022-10-23T11:08:01.289Z,100222.59
2022-10-23T11:12:03.047Z,100238.19
2022-10-23T11:16:12.192Z,100216.56
2022-10-23T11:20:39.873Z,100183.69
2022-10-23T11:24:55.751Z,100177.63
2022-10-23T11:28:59.573Z,100172.41
2022-10-23T11:33:41.369Z,100174.13
2022-10-23T11:37:45.779Z,100171.53
2022-10-23T11:41:51.064Z,100152.53
2022-10-23T11:45:52.747Z,100158.63
2022-10-23T11:50:06.513Z,100149.13
2022-10-23T11:54:28.628Z,100137.00
2022-10-23T11:58:48.656Z,100132.66
2022-10-23T12:02:58.374Z,100128.28
2022-10-23T12:07:04.764Z,100113.56
2022-10-23T12:11:26.831Z,100107.53
2022-10-23T12:15:29.559Z,100104.94
2022-10-23T12:19:47.432Z,100115.34
2022-10-23T12:24:24.267Z,100105.84
2022-10-23T12:28:41.813Z,100093.72
2022-10-23T12:33:14.662Z,100079.00
2022-10-23T12:37:26.654Z,100076.34
2022-10-23T12:41:30.639Z,100059.75
2022-10-23T12:45:38.648Z,100052.75
2022-10-23T12:49:48.964Z,100057.00
2022-10-23T12:53:52.015Z,100056.88
2022-10-23T12:57:54.528Z,100041.97
2022-10-23T13:01:56.375Z,100026.22
2022-10-23T13:06:02.510Z,100015.66
2022-10-23T13:10:05.181Z,100011.13
2022-10-23T13:14:14.676Z,99998.84
2022-10-23T13:18:17.296Z,99993.59
2022-10-23T13:22:21.404Z,99988.28
2022-10-23T13:26:30.439Z,99990.22
2022-10-23T13:30:39.767Z,99998.22
2022-10-23T13:35:03.598Z,99992.19
2022-10-23T13:39:15.242Z,99986.06
2022-10-23T13:43:19.561Z,99967.72
2022-10-23T13:47:21.234Z,99965.94
2022-10-23T13:51:28.486Z,99964.25
2022-10-23T13:55:31.110Z,99944.41
2022-10-23T13:59:32.684Z,99935.69
2022-10-23T14:03:34.289Z,99941.84
2022-10-23T14:07:36.175Z,99927.97
2022-10-23T14:11:38.043Z,99938.53
2022-10-23T14:15:39.798Z,99943.00
2022-10-23T14:19:42.067Z,99919.75
2022-10-23T14:23:43.794Z,99925.88
2022-10-23T14:27:45.636Z,99928.56
2022-10-23T14:31:47.154Z,99913.91
2022-10-23T14:35:51.920Z,99930.41
2022-10-23T14:39:53.424Z,99939.09
2022-10-23T14:43:55.216Z,99918.31
2022-10-23T14:47:56.728Z,99926.00
2022-10-23T14:51:58.366Z,99921.56
2022-10-23T14:56:05.334Z,99917.16
2022-10-23T15:00:07.640Z,99918.94
2022-10-23T15:04:09.379Z,99900.88
2022-10-23T15:08:10.913Z,99894.94
2022-10-23T15:12:12.442Z,99908.03
2022-10-23T15:16:14.460Z,99921.94
2022-10-23T15:20:16.008Z,99901.13
2022-10-23T15:24:18.056Z,99892.50
2022-10-23T15:28:19.652Z,99886.44
2022-10-23T15:32:21.242Z,99884.75
2022-10-23T15:36:22.949Z,99873.56
2022-10-23T15:40:24.456Z,99869.28
2022-10-23T15:44:28.776Z,99856.47
2022-10-23T15:48:30.297Z,99869.50
2022-10-23T15:52:32.013Z,99853.13
2022-10-23T15:56:34.681Z,99852.34
2022-10-23T16:00:37.438Z,99833.38
2022-10-23T16:04:38.940Z,99843.84
2022-10-23T16:08:41.171Z,99846.50
2022-10-23T16:12:43.064Z,99838.75
2022-10-23T16:16:45.063Z,99830.16
2022-10-23T16:20:46.711Z,99821.56
2022-10-23T16:24:48.229Z,99809.47
2022-10-23T16:28:54.337Z,99820.72
2022-10-23T16:32:56.200Z,99815.53
2022-10-23T16:36:57.914Z,99816.41
2022-10-23T16:41:07.157Z,99800.00
2022-10-23T16:45:15.149Z,99797.41
2022-10-23T16:49:16.800Z,99800.00
2022-10-23T16:53:18.693Z,99807.81
2022-10-23T16:57:20.358Z,99806.94
2022-10-23T17:01:26.656Z,99821.63
2022-10-23T17:05:29.097Z,99838.91
2022-10-23T17:09:31.586Z,99834.56
2022-10-23T17:13:33.929Z,99858.72
2022-10-23T17:17:35.432Z,99878.63
2022-10-23T17:21:39.071Z,99871.72
2022-10-23T17:25:40.913Z,99892.47
2022-10-23T17:29:42.436Z,99917.53
2022-10-23T17:33:44.329Z,99952.06
2022-10-23T17:37:45.896Z,100035.03
2022-10-23T17:41:48.078Z,100124.88
2022-10-23T17:45:49.666Z,100066.03
2022-10-23T17:49:51.224Z,100108.19
2022-10-23T17:53:55.529Z,100067.59
2022-10-23T17:57:57.971Z,100078.75
2022-10-23T18:02:00.712Z,100079.63
2022-10-23T18:06:10.509Z,100068.50
2022-10-23T18:10:12.204Z,99997.78
2022-10-23T18:14:13.948Z,99999.53
2022-10-23T18:18:15.469Z,100027.16
2022-10-23T18:26:27.100Z,99981.41
2022-10-23T18:30:28.697Z,99994.34
2022-10-23T18:34:30.266Z,99989.16
2022-10-23T18:38:31.832Z,99974.50
2022-10-23T18:42:34.608Z,99991.75
2022-10-23T18:46:36.614Z,100013.31
2022-10-23T18:50:38.350Z,100002.97
2022-10-23T18:54:39.932Z,100003.81
2022-10-23T18:58:41.695Z,100010.72
2022-10-23T19:02:43.241Z,99997.78
2022-10-23T19:06:46.522Z,100001.22
2022-10-23T19:10:48.427Z,99987.44
2022-10-23T19:14:50.099Z,99991.75
2022-10-23T19:19:05.393Z,99998.66
2022-10-23T19:23:07.110Z,99989.16
2022-10-23T19:27:08.999Z,99991.72
2022-10-23T19:31:11.296Z,99989.13
2022-10-23T19:35:14.550Z,99986.56
2022-10-23T19:39:17.051Z,99976.19
2022-10-23T19:43:18.662Z,99994.28
2022-10-23T19:47:20.190Z,99995.16
2022-10-23T19:51:21.671Z,99989.91
2022-10-23T19:55:23.272Z,99991.66
2022-10-23T19:59:24.949Z,99973.53
2022-10-23T20:03:26.476Z,99972.66
2022-10-23T20:07:28.013Z,99969.16
2022-10-23T20:11:31.288Z,99980.38
2022-10-23T20:15:36.319Z,99980.41
2022-10-23T20:19:37.903Z,99996.75
2022-10-23T20:23:39.572Z,99992.44
2022-10-23T20:27:41.197Z,99996.78
2022-10-23T20:31:43.510Z,99998.50
2022-10-23T20:35:45.114Z,100002.81
2022-10-23T20:39:47.068Z,100000.19
2022-10-23T20:43:48.650Z,100001.94
2022-10-23T20:47:50.355Z,100008.81
2022-10-23T20:51:55.223Z,100012.25
2022-10-23T20:55:57.216Z,100030.38
2022-10-23T20:59:59.270Z,100014.84
2022-10-23T21:04:02.581Z,100020.03
2022-10-23T21:08:04.228Z,100026.91
2022-10-23T21:12:06.580Z,100037.25
2022-10-23T21:16:29.329Z,100037.25
2022-10-23T21:20:30.917Z,100026.91
2022-10-23T21:24:32.427Z,100029.47
2022-10-23T21:28:34.193Z,100024.31
2022-10-23T21:32:35.712Z,100034.69
2022-10-23T21:36:53.816Z,100045.91
2022-10-23T21:41:09.991Z,100056.22
2022-10-23T21:45:11.481Z,100051.97
2022-10-23T21:49:13.176Z,100049.38
2022-10-23T21:53:14.709Z,100054.53
2022-10-23T21:57:16.215Z,100053.69
2022-10-23T22:01:18.075Z,100052.81
2022-10-23T22:05:19.694Z,100057.16
2022-10-23T22:09:22.035Z,100055.41
2022-10-23T22:13:23.570Z,100048.53
2022-10-23T22:17:25.108Z,100040.72
2022-10-23T22:21:28.880Z,100038.97
2022-10-23T22:25:31.089Z,100050.16
2022-10-23T22:29:32.693Z,100048.41
2022-10-23T22:33:34.245Z,100040.63
2022-10-23T22:37:35.780Z,100068.19
2022-10-23T22:41:37.265Z,100063.00
2022-10-23T22:45:38.775Z,100055.19
2022-10-23T22:49:40.307Z,100060.31
2022-10-23T22:53:42.666Z,100061.13
2022-10-23T22:57:44.417Z,100048.94
2022-10-23T23:01:47.859Z,100062.69
2022-10-23T23:05:49.420Z,100049.78
2022-10-23T23:09:51.016Z,100056.66
2022-10-23T23:13:52.589Z,100050.59
2022-10-23T23:17:54.130Z,100059.16
2022-10-23T23:21:57.330Z,100048.72
2022-10-23T23:25:58.862Z,100058.13
2022-10-23T23:30:00.355Z,100055.50
2022-10-23T23:34:01.907Z,100056.31
2022-10-23T23:38:03.378Z,100051.16
2022-10-23T23:42:04.962Z,100055.50
2022-10-23T23:46:06.518Z,100052.94
2022-10-23T23:50:09.641Z,100056.38
2022-10-23T23:54:11.188Z,100051.19
2022-10-23T23:58:13.231Z,100067.53
